createdAt,value
2022-10-23T00:01:36.359Z,12.00
2022-10-23T00:03:38.960Z,11.97
2022-10-23T00:05:41.740Z,11.98
2022-10-23T00:07:45.663Z,11.82
2022-10-23T00:09:48.249Z,11.89
2022-10-23T00:11:51.517Z,11.94
2022-10-23T00:13:56.673Z,11.94
2022-10-23T00:15:59.256Z,11.91
2022-10-23T00:18:01.882Z,11.94
2022-10-23T00:20:05.492Z,11.90
2022-10-23T00:22:08.588Z,11.91
2022-10-23T00:24:12.664Z,11.93
2022-10-23T00:26:15.792Z,11.92
2022-10-23T00:28:18.665Z,11.81
2022-10-23T00:30:21.289Z,11.65
2022-10-23T00:32:23.995Z,11.60
2022-10-23T00:34:26.681Z,11.54
2022-10-23T00:36:29.370Z,11.56
2022-10-23T00:38:31.953Z,11.49
2022-10-23T00:40:36.637Z,11.45
2022-10-23T00:42:39.352Z,11.41
2022-10-23T00:45:10.786Z,11.46
2022-10-23T00:47:14.485Z,11.46
2022-10-23T00:49:17.663Z,11.55
2022-10-23T00:51:20.643Z,11.52
2022-10-23T00:53:24.723Z,11.59
2022-10-23T00:55:28.898Z,11.54
2022-10-23T00:57:32.913Z,11.53
2022-10-23T00:59:35.538Z,11.46
2022-10-23T01:01:38.879Z,11.45
2022-10-23T01:03:41.794Z,11.35
2022-10-23T01:05:50.386Z,11.32
2022-10-23T01:07:57.779Z,11.32
2022-10-23T01:10:06.903Z,11.29
2022-10-23T01:12:16.348Z,11.34
2022-10-23T01:14:27.648Z,11.32
2022-10-23T01:16:40.999Z,11.38
2022-10-23T01:18:50.268Z,11.36
2022-10-23T01:21:00.145Z,11.36
2022-10-23T01:23:15.894Z,11.40
2022-10-23T01:25:28.909Z,11.47
2022-10-23T01:27:37.252Z,11.46
2022-10-23T01:29:44.463Z,11.45
2022-10-23T01:31:53.381Z,11.44
2022-10-23T01:34:00.901Z,11.50
2022-10-23T01:36:05.807Z,11.53
2022-10-23T01:38:14.005Z,11.49
2022-10-23T01:40:24.127Z,11.58
2022-10-23T01:42:30.598Z,11.67
2022-10-23T01:44:39.558Z,11.76
2022-10-23T01:46:44.789Z,11.77
2022-10-23T01:48:52.946Z,11.77
2022-10-23T01:50:58.959Z,11.68
2022-10-23T01:53:01.715Z,11.66
2022-10-23T01:55:05.241Z,11.70
2022-10-23T01:57:11.259Z,11.69
2022-10-23T01:59:17.441Z,11.70
2022-10-23T02:01:24.668Z,11.78
2022-10-23T02:03:30.683Z,11.79
2022-10-23T02:05:33.554Z,11.92
2022-10-23T02:07:36.754Z,12.04
2022-10-23T02:09:39.614Z,11.96
2022-10-23T02:11:53.569Z,11.96
2022-10-23T02:14:00.844Z,11.94
2022-10-23T02:16:08.677Z,11.95
2022-10-23T02:18:25.455Z,11.95
2022-10-23T02:20:35.584Z,11.89
2022-10-23T02:22:41.564Z,11.97
2022-10-23T02:24:49.771Z,11.96
2022-10-23T02:26:54.822Z,11.98
2022-10-23T02:29:01.580Z,11.93
2022-10-23T02:31:07.391Z,11.95
2022-10-23T02:33:13.240Z,11.93
2022-10-23T02:35:17.020Z,11.94
2022-10-23T02:39:25.398Z,11.98
2022-10-23T02:41:38.660Z,11.93
2022-10-23T02:43:49.656Z,11.88
2022-10-23T02:46:00.458Z,11.77
2022-10-23T02:48:12.520Z,11.75
2022-10-23T02:50:27.108Z,11.66
2022-10-23T02:52:39.588Z,11.66
2022-10-23T02:54:58.520Z,11.63
2022-10-23T02:57:07.097Z,11.64
2022-10-23T02:59:15.437Z,11.58
2022-10-23T03:01:23.568Z,11.40
2022-10-23T03:03:30.986Z,11.46
2022-10-23T03:05:39.632Z,11.54
2022-10-23T03:07:42.612Z,11.60
2022-10-23T03:09:47.433Z,11.52
2022-10-23T03:11:50.085Z,11.55
2022-10-23T03:13:53.260Z,11.69
2022-10-23T03:15:55.845Z,11.59
2022-10-23T03:17:58.443Z,11.48
2022-10-23T03:20:01.115Z,11.51
2022-10-23T03:22:05.047Z,11.42
2022-10-23T03:24:07.907Z,11.28
2022-10-23T03:26:10.600Z,11.29
2022-10-23T03:28:13.168Z,11.29
2022-10-23T03:30:15.808Z,11.20
2022-10-23T03:32:20.363Z,11.20
2022-10-23T03:34:23.043Z,11.20
2022-10-23T03:36:25.625Z,11.13
2022-10-23T03:38:29.674Z,11.16
2022-10-23T03:40:32.476Z,11.17
2022-10-23T03:42:35.110Z,11.20
2022-10-23T03:44:37.779Z,11.18
2022-10-23T03:46:40.710Z,11.14
2022-10-23T03:48:43.324Z,11.16
2022-10-23T03:50:45.913Z,11.29
2022-10-23T03:52:48.501Z,11.24
2022-10-23T03:54:52.463Z,11.24
2022-10-23T03:56:57.506Z,11.24
2022-10-23T03:59:00.606Z,11.26
2022-10-23T04:01:03.304Z,11.38
2022-10-23T04:03:05.907Z,11.29
2022-10-23T04:05:08.846Z,11.25
2022-10-23T04:07:11.501Z,11.22
2022-10-23T04:09:14.184Z,11.14
2022-10-23T04:11:18.249Z,11.21
2022-10-23T04:13:20.931Z,11.12
2022-10-23T04:15:23.555Z,11.19
2022-10-23T04:19:28.772Z,11.08
2022-10-23T04:21:31.373Z,11.01
2022-10-23T04:23:34.271Z,10.99
2022-10-23T04:25:36.887Z,11.05
2022-10-23T04:27:41.319Z,11.02
2022-10-23T04:29:44.319Z,11.06
2022-10-23T04:31:46.905Z,11.01
2022-10-23T04:33:49.568Z,11.00
2022-10-23T04:35:52.191Z,10.94
2022-10-23T04:37:54.772Z,10.95
2022-10-23T04:39:57.333Z,10.96
2022-10-23T04:41:59.937Z,10.97
2022-10-23T04:44:03.863Z,10.97
2022-10-23T04:46:07.674Z,11.03
2022-10-23T04:48:10.337Z,11.03
2022-10-23T04:50:12.948Z,11.04
2022-10-23T04:52:15.994Z,11.06
2022-10-23T04:54:18.606Z,11.11
2022-10-23T04:56:21.256Z,11.05
2022-10-23T04:58:25.830Z,11.24
2022-10-23T05:00:29.892Z,11.22
2022-10-23T05:02:32.524Z,11.17
2022-10-23T05:04:35.107Z,11.16
2022-10-23T05:06:37.755Z,11.21
2022-10-23T05:08:40.346Z,11.19
2022-10-23T05:10:42.919Z,11.18
2022-10-23T05:12:45.489Z,11.12
2022-10-23T05:14:48.064Z,11.12
2022-10-23T05:16:56.510Z,11.18
2022-10-23T05:19:00.835Z,11.30
2022-10-23T05:21:07.583Z,11.32
2022-10-23T05:23:12.751Z,11.31
2022-10-23T05:25:15.325Z,11.36
2022-10-23T05:27:17.935Z,11.33
2022-10-23T05:29:21.477Z,11.36
2022-10-23T05:31:26.195Z,11.37
2022-10-23T05:33:32.014Z,11.35
2022-10-23T05:35:34.944Z,11.36
2022-10-23T05:37:40.879Z,11.32
2022-10-23T05:39:44.048Z,11.31
2022-10-23T05:41:46.641Z,11.34
2022-10-23T05:43:49.253Z,11.39
2022-10-23T05:45:51.799Z,11.33
2022-10-23T05:47:56.559Z,11.39
2022-10-23T05:50:02.678Z,11.39
2022-10-23T05:52:05.394Z,11.39
2022-10-23T05:54:08.896Z,11.39
2022-10-23T05:56:11.551Z,11.34
2022-10-23T05:58:14.149Z,11.29
2022-10-23T06:00:16.822Z,11.20
2022-10-23T06:02:19.492Z,11.23
2022-10-23T06:04:22.130Z,11.33
2022-10-23T06:06:26.156Z,11.12
2022-10-23T06:08:28.779Z,11.17
2022-10-23T06:10:32.508Z,11.21
2022-10-23T06:12:35.121Z,11.29
2022-10-23T06:14:37.709Z,11.18
2022-10-23T06:16:40.364Z,11.18
2022-10-23T06:18:43.681Z,11.18
2022-10-23T06:20:46.309Z,11.32
2022-10-23T06:22:50.373Z,11.25
2022-10-23T06:24:52.985Z,11.20
2022-10-23T06:26:55.604Z,11.09
2022-10-23T06:28:58.572Z,11.16
2022-10-23T06:31:01.214Z,11.23
2022-10-23T06:33:05.903Z,11.23
2022-10-23T06:35:10.107Z,11.22
2022-10-23T06:37:12.734Z,11.27
2022-10-23T06:39:16.690Z,11.37
2022-10-23T06:41:21.033Z,11.38
2022-10-23T06:43:23.802Z,11.40
2022-10-23T06:45:26.411Z,11.55
2022-10-23T06:47:29.012Z,11.55
2022-10-23T06:49:31.620Z,11.60
2022-10-23T06:51:34.256Z,11.64
2022-10-23T06:53:38.838Z,11.68
2022-10-23T06:55:42.777Z,11.69
2022-10-23T06:57:46.149Z,11.76
2022-10-23T06:59:49.016Z,11.90
2022-10-23T07:01:51.861Z,11.84
2022-10-23T07:03:54.577Z,11.98
2022-10-23T07:05:57.199Z,11.96
2022-10-23T07:07:59.779Z,11.88
2022-10-23T07:10:02.509Z,11.84
2022-10-23T07:12:06.925Z,11.99
2022-10-23T07:14:09.601Z,11.96
2022-10-23T07:16:14.043Z,12.09
2022-10-23T07:18:16.928Z,12.08
2022-10-23T07:20:19.652Z,12.31
2022-10-23T07:22:22.235Z,12.10
2022-10-23T07:24:24.878Z,12.12
2022-10-23T07:26:28.189Z,12.18
2022-10-23T07:28:32.272Z,12.25
2022-10-23T07:30:34.929Z,12.31
2022-10-23T07:32:37.532Z,12.37
2022-10-23T07:34:40.360Z,12.27
2022-10-23T07:36:42.983Z,12.49
2022-10-23T07:38:46.117Z,12.52
2022-10-23T07:40:48.751Z,12.56
2022-10-23T07:42:51.370Z,12.61
2022-10-23T07:44:55.302Z,12.84
2022-10-23T07:46:57.903Z,12.79
2022-10-23T07:49:00.623Z,12.83
2022-10-23T07:51:08.224Z,13.06
2022-10-23T07:53:17.746Z,13.17
2022-10-23T07:55:20.349Z,13.16
2022-10-23T07:57:23.564Z,13.34
2022-10-23T07:59:26.484Z,13.46
2022-10-23T08:01:33.461Z,13.51
2022-10-23T08:03:36.236Z,13.81
2022-10-23T08:05:38.846Z,13.95
2022-10-23T08:07:42.044Z,13.89
2022-10-23T08:09:44.753Z,13.99
2022-10-23T08:11:47.761Z,13.85
2022-10-23T08:13:50.424Z,13.92
2022-10-23T08:15:53.804Z,14.06
2022-10-23T08:17:57.754Z,14.36
2022-10-23T08:20:00.338Z,14.47
2022-10-23T08:22:03.830Z,14.71
2022-10-23T08:24:07.323Z,15.13
2022-10-23T08:26:10.263Z,15.92
2022-10-23T08:28:12.939Z,15.90
2022-10-23T08:30:16.080Z,15.55
2022-10-23T08:32:18.663Z,15.84
2022-10-23T08:34:22.955Z,15.82
2022-10-23T08:36:27.995Z,16.02
2022-10-23T08:38:30.626Z,16.13
2022-10-23T08:40:34.136Z,16.01
2022-10-23T08:42:40.536Z,15.75
2022-10-23T08:44:48.791Z,15.87
2022-10-23T08:46:59.200Z,15.74
2022-10-23T08:49:18.496Z,15.43
2022-10-23T08:51:26.410Z,16.08
2022-10-23T08:53:37.430Z,16.23
2022-10-23T08:55:45.604Z,16.42
2022-10-23T08:57:56.309Z,17.19
2022-10-23T09:00:01.297Z,17.39
2022-10-23T09:02:12.148Z,17.68
2022-10-23T09:04:16.594Z,17.98
2022-10-23T09:06:31.952Z,18.48
2022-10-23T09:08:43.752Z,19.10
2022-10-23T09:10:57.821Z,19.58
2022-10-23T09:13:11.994Z,18.63
2022-10-23T09:15:22.204Z,19.63
2022-10-23T09:17:27.425Z,20.30
2022-10-23T09:19:31.317Z,19.78
2022-10-23T09:21:36.885Z,19.27
2022-10-23T09:23:39.562Z,19.01
2022-10-23T09:25:44.125Z,20.00
2022-10-23T09:27:50.609Z,19.49
2022-10-23T09:29:59.065Z,19.52
2022-10-23T09:32:02.882Z,19.90
2022-10-23T09:34:09.638Z,19.17
2022-10-23T09:36:23.445Z,18.99
2022-10-23T09:38:33.092Z,19.82
2022-10-23T09:40:41.598Z,19.64
2022-10-23T09:42:55.986Z,20.36
2022-10-23T09:44:58.616Z,20.30
2022-10-23T09:47:11.116Z,19.66
2022-10-23T09:49:19.065Z,19.91
2022-10-23T09:51:22.583Z,19.59
2022-10-23T09:53:40.807Z,19.98
2022-10-23T09:55:44.502Z,20.36
2022-10-23T09:57:48.430Z,20.18
2022-10-23T09:59:53.288Z,21.26
2022-10-23T10:01:58.320Z,19.56
2022-10-23T10:04:01.189Z,18.96
2022-10-23T10:06:05.341Z,19.27
2022-10-23T10:08:18.859Z,19.13
2022-10-23T10:10:24.084Z,18.96
2022-10-23T10:12:46.751Z,19.16
2022-10-23T10:14:56.722Z,19.24
2022-10-23T10:17:04.540Z,19.24
2022-10-23T10:19:19.195Z,18.71
2022-10-23T10:21:26.136Z,18.62
2022-10-23T10:23:35.878Z,18.53
2022-10-23T10:25:52.147Z,18.92
2022-10-23T10:28:07.677Z,19.30
2022-10-23T10:30:15.300Z,19.98
2022-10-23T10:32:32.387Z,19.38
2022-10-23T10:34:42.868Z,19.60
2022-10-23T10:36:50.748Z,19.51
2022-10-23T10:38:58.306Z,19.54
2022-10-23T10:41:23.173Z,19.54
2022-10-23T10:43:37.839Z,19.74
2022-10-23T10:45:45.098Z,20.01
2022-10-23T10:48:02.238Z,19.80
2022-10-23T10:50:17.077Z,19.21
2022-10-23T10:52:26.079Z,19.14
2022-10-23T10:54:43.247Z,18.81
2022-10-23T10:56:48.893Z,18.94
2022-10-23T10:58:55.537Z,18.92
2022-10-23T11:01:02.451Z,19.01
2022-10-23T11:03:15.816Z,19.16
2022-10-23T11:05:31.291Z,19.30
2022-10-23T11:07:43.052Z,19.29
2022-10-23T11:09:47.288Z,19.91
2022-10-23T11:11:51.452Z,19.76
2022-10-23T11:13:54.385Z,19.77
2022-10-23T11:16:01.314Z,19.98
2022-10-23T11:18:13.992Z,20.11
2022-10-23T11:20:32.578Z,20.03
2022-10-23T11:22:38.792Z,19.88
2022-10-23T11:25:17.269Z,20.02
2022-10-23T11:27:58.110Z,19.77
2022-10-23T11:30:18.983Z,19.47
2022-10-23T11:32:44.546Z,19.77
2022-10-23T11:34:58.906Z,19.19
2022-10-23T11:37:03.766Z,19.04
2022-10-23T11:39:18.527Z,19.26
2022-10-23T11:41:26.563Z,19.51
2022-10-23T11:43:31.651Z,19.29
2022-10-23T11:45:37.967Z,19.40
2022-10-23T11:47:43.701Z,19.36
2022-10-23T11:49:46.392Z,19.77
2022-10-23T11:51:59.839Z,19.41
2022-10-23T11:54:27.055Z,19.50
2022-10-23T11:56:31.186Z,19.46
2022-10-23T11:58:46.749Z,19.60
2022-10-23T12:01:01.001Z,19.61
2022-10-23T12:03:04.052Z,19.89
2022-10-23T12:05:09.693Z,20.03
2022-10-23T12:07:22.303Z,19.91
2022-10-23T12:09:29.041Z,20.40
2022-10-23T12:11:44.211Z,20.00
2022-10-23T12:13:47.525Z,20.29
2022-10-23T12:15:57.170Z,20.28
2022-10-23T12:18:15.501Z,20.75
2022-10-23T12:20:28.046Z,20.97
2022-10-23T12:22:39.656Z,20.41
2022-10-23T12:25:00.837Z,20.17
2022-10-23T12:27:15.305Z,20.04
2022-10-23T12:29:32.529Z,19.86
2022-10-23T12:31:48.359Z,19.86
2022-10-23T12:34:02.362Z,20.48
2022-10-23T12:36:36.203Z,20.51
2022-10-23T12:38:45.098Z,20.71
2022-10-23T12:40:52.587Z,20.42
2022-10-23T12:42:57.334Z,20.88
2022-10-23T12:45:01.324Z,21.25
2022-10-23T12:47:05.099Z,21.14
2022-10-23T12:49:16.887Z,21.22
2022-10-23T12:51:24.555Z,21.00
2022-10-23T12:53:27.428Z,21.21
2022-10-23T12:55:35.814Z,22.30
2022-10-23T12:57:43.247Z,22.75
2022-10-23T12:59:46.354Z,22.51
2022-10-23T13:01:52.577Z,22.09
2022-10-23T13:04:00.042Z,22.00
2022-10-23T13:06:04.775Z,22.87
2022-10-23T13:08:07.724Z,22.69
2022-10-23T13:10:15.408Z,21.98
2022-10-23T13:12:24.305Z,22.01
2022-10-23T13:14:32.914Z,22.59
2022-10-23T13:16:35.588Z,22.55
2022-10-23T13:18:42.217Z,22.54
2022-10-23T13:20:57.920Z,22.93
2022-10-23T13:23:10.407Z,22.42
2022-10-23T13:25:24.724Z,23.59
2022-10-23T13:27:33.716Z,23.43
2022-10-23T13:29:36.413Z,22.63
2022-10-23T13:31:39.083Z,21.74
2022-10-23T13:33:43.282Z,21.77
2022-10-23T13:35:56.143Z,21.82
2022-10-23T13:38:08.803Z,21.65
2022-10-23T13:40:23.372Z,21.57
2022-10-23T13:42:26.017Z,21.44
2022-10-23T13:44:28.952Z,21.47
2022-10-23T13:46:31.709Z,21.18
2022-10-23T13:48:34.319Z,21.37
2022-10-23T13:50:37.110Z,21.44
2022-10-23T13:52:39.679Z,21.78
2022-10-23T13:54:43.783Z,21.85
2022-10-23T13:56:47.360Z,21.36
2022-10-23T13:58:50.434Z,21.39
2022-10-23T14:00:53.955Z,21.04
2022-10-23T14:02:56.576Z,21.05
2022-10-23T14:04:59.241Z,21.19
2022-10-23T14:07:01.865Z,21.01
2022-10-23T14:09:05.951Z,20.99
2022-10-23T14:11:10.472Z,20.69
2022-10-23T14:13:13.154Z,20.64
2022-10-23T14:15:15.921Z,20.57
2022-10-23T14:17:18.531Z,20.49
2022-10-23T14:19:21.141Z,20.32
2022-10-23T14:21:25.250Z,20.25
2022-10-23T14:23:27.858Z,20.24
2022-10-23T14:25:30.466Z,20.21
2022-10-23T14:27:34.557Z,20.16
2022-10-23T14:29:37.125Z,20.20
2022-10-23T14:31:39.738Z,20.20
2022-10-23T14:33:42.799Z,20.70
2022-10-23T14:35:45.366Z,20.44
2022-10-23T14:37:48.075Z,20.05
2022-10-23T14:39:50.767Z,19.91
2022-10-23T14:41:53.436Z,19.87
2022-10-23T14:43:57.388Z,19.77
2022-10-23T14:46:09.393Z,19.68
2022-10-23T14:48:12.042Z,19.77
2022-10-23T14:50:15.119Z,19.78
2022-10-23T14:52:17.799Z,19.67
2022-10-23T14:54:20.464Z,19.66
2022-10-23T14:56:23.900Z,19.57
2022-10-23T14:58:26.490Z,19.63
2022-10-23T15:00:30.808Z,19.83
2022-10-23T15:02:33.471Z,19.58
2022-10-23T15:04:36.068Z,19.48
2022-10-23T15:06:38.802Z,19.39
2022-10-23T15:08:41.397Z,19.43
2022-10-23T15:10:44.015Z,19.65
2022-10-23T15:12:46.929Z,19.67
2022-10-23T15:14:49.649Z,19.99
2022-10-23T15:16:53.685Z,19.79
2022-10-23T15:18:56.299Z,19.74
2022-10-23T15:20:59.327Z,19.73
2022-10-23T15:23:02.921Z,19.66
2022-10-23T15:25:06.521Z,19.63
2022-10-23T15:29:17.158Z,19.73
2022-10-23T15:31:42.717Z,19.68
2022-10-23T15:33:46.666Z,19.76
2022-10-23T15:35:49.286Z,19.66
2022-10-23T15:37:51.877Z,19.41
2022-10-23T15:39:57.180Z,19.36
2022-10-23T15:42:04.125Z,19.25
2022-10-23T15:44:08.424Z,19.12
2022-10-23T15:46:11.017Z,19.39
2022-10-23T15:48:13.775Z,19.31
2022-10-23T15:50:18.286Z,19.14
2022-10-23T15:52:20.889Z,19.10
2022-10-23T15:54:26.041Z,18.95
2022-10-23T15:56:30.859Z,19.10
2022-10-23T15:58:33.468Z,19.06
2022-10-23T16:00:36.609Z,18.98
2022-10-23T16:02:39.319Z,19.06
2022-10-23T16:04:41.942Z,19.01
2022-10-23T16:06:46.200Z,19.28
2022-10-23T16:08:48.969Z,18.86
2022-10-23T16:10:51.590Z,19.05
2022-10-23T16:12:54.163Z,19.09
2022-10-23T16:14:56.723Z,18.89
2022-10-23T16:16:59.338Z,18.88
2022-10-23T16:19:03.436Z,18.85
2022-10-23T16:21:06.402Z,18.78
2022-10-23T16:23:10.376Z,18.70
2022-10-23T16:25:13.072Z,18.65
2022-10-23T16:27:15.720Z,18.70
2022-10-23T16:29:18.476Z,18.63
2022-10-23T16:31:23.148Z,18.60
2022-10-23T16:33:25.858Z,18.58
2022-10-23T16:35:30.982Z,18.40
2022-10-23T16:37:33.986Z,18.48
2022-10-23T16:39:38.037Z,18.38
2022-10-23T16:41:40.673Z,18.38
2022-10-23T16:43:43.285Z,18.38
2022-10-23T16:45:46.014Z,18.42
2022-10-23T16:47:48.615Z,18.38
2022-10-23T16:49:51.237Z,18.36
2022-10-23T16:51:53.912Z,18.29
2022-10-23T16:53:56.690Z,18.46
2022-10-23T16:56:00.655Z,18.40
2022-10-23T16:58:03.655Z,18.40
2022-10-23T17:00:07.784Z,18.59
2022-10-23T17:02:11.144Z,18.65
2022-10-23T17:04:13.836Z,18.55
2022-10-23T17:06:18.992Z,18.45
2022-10-23T17:08:21.592Z,18.47
2022-10-23T17:10:24.413Z,18.57
2022-10-23T17:12:28.472Z,18.64
2022-10-23T17:14:31.232Z,18.70
2022-10-23T17:16:36.549Z,18.73
2022-10-23T17:18:43.668Z,18.68
2022-10-23T17:20:46.738Z,18.80
2022-10-23T17:22:49.374Z,18.75
2022-10-23T17:24:53.096Z,18.75
2022-10-23T17:26:56.869Z,18.68
2022-10-23T17:29:02.649Z,18.68
2022-10-23T17:31:05.407Z,18.73
2022-10-23T17:33:08.023Z,18.73
2022-10-23T17:35:11.233Z,18.66
2022-10-23T17:37:14.389Z,18.56
2022-10-23T17:39:20.331Z,18.54
2022-10-23T17:41:25.381Z,18.44
2022-10-23T17:43:27.977Z,18.35
2022-10-23T17:45:35.652Z,18.16
2022-10-23T17:47:40.063Z,18.08
2022-10-23T17:49:45.394Z,18.20
2022-10-23T17:51:52.634Z,18.37
2022-10-23T17:53:56.220Z,18.34
2022-10-23T17:56:01.726Z,18.56
2022-10-23T17:58:04.330Z,18.45
2022-10-23T18:00:07.790Z,18.32
2022-10-23T18:02:13.255Z,18.19
2022-10-23T18:04:18.193Z,18.40
2022-10-23T18:06:24.620Z,18.34
2022-10-23T18:08:30.006Z,18.34
2022-10-23T18:10:35.909Z,18.00
2022-10-23T18:12:38.518Z,17.85
2022-10-23T18:14:41.295Z,18.00
2022-10-23T18:16:45.447Z,18.02
2022-10-23T18:18:51.755Z,18.30
2022-10-23T18:20:54.419Z,18.35
2022-10-23T18:22:57.008Z,18.24
2022-10-23T18:24:59.962Z,18.13
2022-10-23T18:27:02.703Z,18.03
2022-10-23T18:29:07.591Z,17.94
2022-10-23T18:31:10.670Z,17.92
2022-10-23T18:33:15.035Z,17.85
2022-10-23T18:35:19.332Z,17.88
2022-10-23T18:37:21.963Z,17.74
2022-10-23T18:39:25.947Z,17.73
2022-10-23T18:41:28.596Z,17.74
2022-10-23T18:43:43.141Z,17.92
2022-10-23T18:45:46.580Z,18.02
2022-10-23T18:47:49.565Z,17.78
2022-10-23T18:49:52.185Z,17.82
2022-10-23T18:51:58.181Z,17.78
2022-10-23T18:54:02.578Z,17.58
2022-10-23T18:56:07.689Z,17.54
2022-10-23T18:58:10.256Z,17.55
2022-10-23T19:00:14.290Z,17.61
2022-10-23T19:02:17.499Z,17.55
2022-10-23T19:04:20.473Z,17.68
2022-10-23T19:06:23.431Z,17.59
2022-10-23T19:08:27.388Z,17.60
2022-10-23T19:10:32.096Z,17.41
2022-10-23T19:12:34.759Z,17.63
2022-10-23T19:14:37.442Z,17.79
2022-10-23T19:16:45.273Z,17.58
2022-10-23T19:18:51.445Z,17.69
2022-10-23T19:20:54.012Z,17.64
2022-10-23T19:22:57.517Z,17.60
2022-10-23T19:25:10.229Z,17.63
2022-10-23T19:27:12.889Z,17.83
2022-10-23T19:29:19.481Z,17.91
2022-10-23T19:31:23.346Z,18.09
2022-10-23T19:33:25.923Z,18.25
2022-10-23T19:35:29.109Z,18.27
2022-10-23T19:37:31.705Z,18.13
2022-10-23T19:39:34.371Z,18.01
2022-10-23T19:41:38.363Z,18.00
2022-10-23T19:43:42.138Z,18.00
2022-10-23T19:45:44.812Z,18.10
2022-10-23T19:47:47.795Z,18.35
2022-10-23T19:49:51.718Z,18.41
2022-10-23T19:51:54.338Z,18.56
2022-10-23T19:53:57.282Z,18.59
2022-10-23T19:56:03.872Z,18.60
2022-10-23T19:58:07.852Z,18.50
2022-10-23T20:00:11.735Z,18.77
2022-10-23T20:02:14.569Z,18.76
2022-10-23T20:04:18.115Z,18.77
2022-10-23T20:06:22.641Z,18.89
2022-10-23T20:08:25.211Z,18.77
2022-10-23T20:10:28.255Z,18.81
2022-10-23T20:12:30.860Z,18.85
2022-10-23T20:14:35.092Z,18.72
2022-10-23T20:16:39.345Z,18.74
2022-10-23T20:18:42.000Z,18.77
2022-10-23T20:20:44.579Z,18.81
2022-10-23T20:22:48.500Z,18.79
2022-10-23T20:24:53.694Z,18.86
2022-10-23T20:26:57.129Z,19.00
2022-10-23T20:29:00.005Z,19.00
2022-10-23T20:31:08.361Z,18.94
2022-10-23T20:33:10.936Z,18.98
2022-10-23T20:35:13.859Z,18.86
2022-10-23T20:37:16.453Z,18.96
2022-10-23T20:39:21.897Z,18.93
2022-10-23T20:41:27.061Z,18.91
2022-10-23T20:43:29.646Z,19.07
2022-10-23T20:45:32.239Z,18.89
2022-10-23T20:47:36.225Z,19.04
2022-10-23T20:49:38.850Z,18.96
2022-10-23T20:51:41.991Z,18.96
2022-10-23T20:53:45.915Z,18.94
2022-10-23T20:55:48.703Z,18.96
2022-10-23T20:57:51.667Z,18.87
2022-10-23T20:59:54.466Z,18.90
2022-10-23T21:01:57.525Z,18.77
2022-10-23T21:04:03.182Z,18.80
2022-10-23T21:06:08.060Z,18.76
2022-10-23T21:08:10.918Z,18.77
2022-10-23T21:10:13.620Z,18.83
2022-10-23T21:12:16.297Z,18.81
2022-10-23T21:14:18.937Z,18.71
2022-10-23T21:16:27.773Z,18.76
2022-10-23T21:18:45.499Z,18.74
2022-10-23T21:20:50.200Z,18.71
2022-10-23T21:22:55.351Z,18.76
2022-10-23T21:24:59.961Z,18.90
2022-10-23T21:27:03.951Z,18.91
2022-10-23T21:29:17.994Z,18.98
2022-10-23T21:31:25.832Z,18.91
2022-10-23T21:33:28.889Z,18.86
2022-10-23T21:35:32.070Z,18.79
2022-10-23T21:37:36.041Z,18.91
2022-10-23T21:39:38.656Z,18.86
2022-10-23T21:41:41.240Z,18.89
2022-10-23T21:43:43.886Z,18.89
2022-10-23T21:45:46.479Z,18.91
2022-10-23T21:47:49.103Z,18.81
2022-10-23T21:49:52.301Z,18.88
2022-10-23T21:51:55.397Z,18.85
2022-10-23T21:53:59.807Z,18.79
2022-10-23T21:56:05.508Z,18.89
2022-10-23T21:58:10.220Z,18.80
2022-10-23T22:00:16.093Z,18.81
2022-10-23T22:02:18.819Z,18.76
2022-10-23T22:04:22.049Z,18.75
2022-10-23T22:06:27.192Z,18.78
2022-10-23T22:08:30.449Z,18.69
2022-10-23T22:10:35.060Z,18.58
2022-10-23T22:12:37.663Z,18.66
2022-10-23T22:14:40.438Z,18.78
2022-10-23T22:16:43.177Z,18.69
2022-10-23T22:18:46.005Z,18.65
2022-10-23T22:20:48.729Z,18.60
2022-10-23T22:22:51.338Z,18.67
2022-10-23T22:24:53.932Z,18.68
2022-10-23T22:26:58.231Z,18.60
2022-10-23T22:29:03.132Z,18.66
2022-10-23T22:31:06.044Z,18.61
2022-10-23T22:33:08.601Z,18.49
2022-10-23T22:35:11.154Z,18.56
2022-10-23T22:37:13.937Z,18.48
2022-10-23T22:39:16.828Z,18.49
2022-10-23T22:41:19.553Z,18.41
2022-10-23T22:43:23.500Z,18.44
2022-10-23T22:45:26.076Z,18.44
2022-10-23T22:47:30.301Z,18.41
2022-10-23T22:49:32.888Z,18.47
2022-10-23T22:51:35.588Z,18.40
2022-10-23T22:53:38.532Z,18.37
2022-10-23T22:55:42.721Z,18.33
2022-10-23T22:57:45.677Z,18.25
2022-10-23T22:59:49.867Z,18.24
2022-10-23T23:01:52.857Z,18.26
2022-10-23T23:03:58.212Z,18.21
2022-10-23T23:06:05.057Z,18.17
2022-10-23T23:08:07.649Z,18.25
2022-10-23T23:10:10.801Z,18.24
2022-10-23T23:12:14.619Z,18.19
2022-10-23T23:14:20.316Z,18.30
2022-10-23T23:16:29.179Z,18.26
2022-10-23T23:18:32.624Z,18.23
2022-10-23T23:20:35.722Z,18.17
2022-10-23T23:22:38.360Z,18.12
2022-10-23T23:24:40.967Z,18.07
2022-10-23T23:26:43.522Z,18.24
2022-10-23T23:28:46.474Z,18.21
2022-10-23T23:30:49.981Z,18.18
2022-10-23T23:32:54.731Z,18.06
2022-10-23T23:34:59.548Z,18.02
2022-10-23T23:37:02.146Z,18.09
2022-10-23T23:39:05.544Z,18.23
2022-10-23T23:41:12.198Z,18.20
2022-10-23T23:43:14.632Z,18.16
2022-10-23T23:45:17.400Z,18.12
2022-10-23T23:47:20.091Z,18.13
2022-10-23T23:49:24.524Z,18.00
2022-10-23T23:51:27.474Z,18.07
2022-10-23T23:53:30.403Z,18.03
2022-10-23T23:55:33.109Z,17.95
2022-10-23T23:57:35.742Z,18.01
2022-10-23T23:59:38.461Z,17.96
